createdAt,value
2017-09-07T00:01:23.923Z,13.80
2017-09-07T00:03:51.647Z,13.80
2017-09-07T00:06:19.371Z,13.70
2017-09-07T00:08:47.131Z,13.70
2017-09-07T00:11:14.854Z,13.70
2017-09-07T00:13:42.635Z,13.60
2017-09-07T00:16:10.358Z,13.60
2017-09-07T00:18:38.085Z,13.50
2017-09-07T00:21:05.847Z,13.50
2017-09-07T00:24:00.392Z,13.60
2017-09-07T00:26:28.170Z,13.60
2017-09-07T00:28:55.890Z,13.50
2017-09-07T00:31:24.373Z,13.50
2017-09-07T00:33:52.142Z,13.50
2017-09-07T00:36:19.867Z,13.40
2017-09-07T00:38:48.455Z,13.30
2017-09-07T00:41:16.183Z,13.30
2017-09-07T00:43:43.904Z,13.30
2017-09-07T00:46:11.652Z,13.20
2017-09-07T00:48:39.377Z,13.10
2017-09-07T00:51:07.205Z,13.10
2017-09-07T00:53:34.938Z,13.10
2017-09-07T00:56:03.437Z,13.30
2017-09-07T00:58:31.196Z,13.30
2017-09-07T01:00:58.923Z,13.40
2017-09-07T01:03:27.466Z,13.50
2017-09-07T01:05:55.955Z,13.70
2017-09-07T01:08:23.694Z,13.60
2017-09-07T01:10:51.459Z,13.70
2017-09-07T01:13:19.248Z,13.80
2017-09-07T01:15:47.182Z,13.90
2017-09-07T01:18:14.895Z,14.00
2017-09-07T01:20:43.419Z,14.10
2017-09-07T01:23:11.183Z,14.00
2017-09-07T01:25:38.913Z,14.10
2017-09-07T01:28:06.714Z,14.10
2017-09-07T01:30:34.436Z,14.00
2017-09-07T01:33:02.940Z,14.00
2017-09-07T01:35:30.695Z,14.00
2017-09-07T01:37:58.415Z,14.00
2017-09-07T01:40:26.194Z,14.10
2017-09-07T01:42:54.694Z,14.00
2017-09-07T01:45:22.417Z,14.00
2017-09-07T01:47:50.170Z,14.10
2017-09-07T01:50:17.891Z,14.10
2017-09-07T01:52:45.670Z,14.10
2017-09-07T01:55:14.184Z,13.80
2017-09-07T01:57:42.674Z,13.80
2017-09-07T02:00:11.198Z,13.70
2017-09-07T02:02:38.914Z,13.70
2017-09-07T02:05:07.465Z,13.70
2017-09-07T02:07:35.181Z,13.70
2017-09-07T02:10:02.903Z,13.70
2017-09-07T02:12:31.414Z,13.60
2017-09-07T02:14:59.160Z,13.60
2017-09-07T02:17:27.735Z,13.50
2017-09-07T02:19:56.219Z,13.30
2017-09-07T02:22:24.703Z,13.20
2017-09-07T02:24:53.214Z,13.20
2017-09-07T02:27:20.939Z,13.10
2017-09-07T02:29:48.939Z,13.10
2017-09-07T02:32:16.653Z,13.10
2017-09-07T02:34:44.386Z,13.10
2017-09-07T02:37:12.143Z,13.00
2017-09-07T02:39:39.868Z,12.90
2017-09-07T02:42:07.638Z,13.00
2017-09-07T02:44:35.358Z,12.90
2017-09-07T02:47:03.087Z,12.90
2017-09-07T02:49:30.836Z,12.90
2017-09-07T02:51:58.559Z,12.90
2017-09-07T02:54:26.341Z,13.00
2017-09-07T02:56:54.074Z,13.00
2017-09-07T02:59:22.563Z,13.00
2017-09-07T03:01:50.311Z,13.00
2017-09-07T03:04:18.807Z,12.90
2017-09-07T03:06:46.578Z,12.90
2017-09-07T03:09:14.299Z,12.90
2017-09-07T03:11:42.778Z,13.10
2017-09-07T03:14:11.293Z,13.10
2017-09-07T03:16:39.010Z,13.10
2017-09-07T03:19:06.783Z,13.10
2017-09-07T03:21:35.266Z,13.20
2017-09-07T03:24:03.759Z,13.10
2017-09-07T03:26:31.512Z,13.10
2017-09-07T03:28:59.999Z,13.00
2017-09-07T03:31:27.778Z,13.00
2017-09-07T03:33:55.498Z,12.90
2017-09-07T03:36:23.990Z,12.90
2017-09-07T03:38:51.747Z,12.90
2017-09-07T03:41:20.242Z,12.80
2017-09-07T03:43:48.024Z,12.80
2017-09-07T03:46:15.739Z,12.80
2017-09-07T03:48:44.227Z,12.60
2017-09-07T03:51:12.738Z,12.60
2017-09-07T03:53:40.458Z,12.60
2017-09-07T03:56:08.233Z,12.60
2017-09-07T03:58:36.723Z,12.50
2017-09-07T04:01:04.443Z,12.50
2017-09-07T04:03:32.191Z,12.50
2017-09-07T04:05:59.911Z,12.40
2017-09-07T04:08:27.686Z,12.30
2017-09-07T04:10:55.403Z,12.30
2017-09-07T04:13:23.895Z,12.10
2017-09-07T04:15:52.406Z,12.10
2017-09-07T04:18:20.128Z,12.10
2017-09-07T04:20:48.735Z,11.90
2017-09-07T04:23:16.460Z,11.90
2017-09-07T04:25:44.948Z,12.00
2017-09-07T04:28:13.473Z,12.10
2017-09-07T04:30:41.196Z,12.10
2017-09-07T04:33:09.739Z,12.10
2017-09-07T04:35:37.496Z,12.10
2017-09-07T04:38:05.217Z,12.10
2017-09-07T04:40:32.973Z,12.20
2017-09-07T04:43:00.692Z,12.30
2017-09-07T04:45:28.474Z,12.30
2017-09-07T04:47:56.958Z,12.40
2017-09-07T04:50:25.460Z,12.50
2017-09-07T04:52:53.207Z,12.50
2017-09-07T04:55:20.926Z,12.60
2017-09-07T04:57:48.701Z,12.70
2017-09-07T05:00:16.437Z,12.80
2017-09-07T05:02:44.156Z,13.00
2017-09-07T05:05:11.926Z,13.20
2017-09-07T05:07:39.646Z,13.40
2017-09-07T05:10:08.190Z,14.10
2017-09-07T05:12:35.933Z,14.10
2017-09-07T05:15:03.674Z,14.50
2017-09-07T05:17:32.199Z,15.10
2017-09-07T05:20:01.182Z,15.10
2017-09-07T05:22:29.107Z,15.50
2017-09-07T05:24:56.830Z,16.10
2017-09-07T05:27:24.555Z,16.60
2017-09-07T05:29:52.311Z,17.40
2017-09-07T05:32:20.042Z,17.90
2017-09-07T05:34:48.594Z,18.50
2017-09-07T05:37:16.307Z,18.50
2017-09-07T05:39:44.031Z,19.20
2017-09-07T05:42:12.561Z,20.00
2017-09-07T05:44:40.279Z,20.00
2017-09-07T05:47:08.831Z,21.10
2017-09-07T05:49:36.563Z,21.10
2017-09-07T05:52:04.288Z,21.40
2017-09-07T05:54:32.812Z,21.80
2017-09-07T05:57:00.535Z,21.80
2017-09-07T05:59:28.310Z,22.50
2017-09-07T06:01:56.039Z,22.00
2017-09-07T06:04:24.530Z,22.90
2017-09-07T06:06:52.282Z,22.90
2017-09-07T06:09:20.773Z,23.30
2017-09-07T06:11:49.326Z,23.60
2017-09-07T06:14:17.052Z,23.60
2017-09-07T06:16:44.774Z,23.40
2017-09-07T06:19:13.293Z,24.00
2017-09-07T06:21:41.033Z,24.00
2017-09-07T06:24:08.811Z,23.70
2017-09-07T06:26:36.530Z,24.40
2017-09-07T06:29:05.020Z,25.30
2017-09-07T06:31:32.775Z,25.30
2017-09-07T06:34:01.263Z,23.30
2017-09-07T06:36:29.060Z,23.30
2017-09-07T06:38:56.788Z,23.10
2017-09-07T06:41:24.521Z,22.70
2017-09-07T06:43:53.045Z,23.40
2017-09-07T06:46:20.767Z,23.40
2017-09-07T06:48:49.315Z,24.00
2017-09-07T06:51:17.808Z,23.80
2017-09-07T06:53:45.538Z,23.70
2017-09-07T06:56:13.331Z,23.70
2017-09-07T06:58:41.052Z,23.80
2017-09-07T07:01:08.784Z,23.70
2017-09-07T07:03:37.296Z,22.50
2017-09-07T07:06:05.019Z,22.50
2017-09-07T07:08:33.505Z,21.60
2017-09-07T07:11:01.260Z,21.60
2017-09-07T07:13:29.760Z,20.70
2017-09-07T07:15:57.478Z,20.70
2017-09-07T07:18:25.230Z,20.00
2017-09-07T07:20:52.950Z,18.80
2017-09-07T07:23:20.675Z,18.40
2017-09-07T07:25:49.199Z,17.90
2017-09-07T07:28:16.927Z,17.90
2017-09-07T07:30:44.662Z,17.60
2017-09-07T07:33:12.410Z,17.40
2017-09-07T07:35:40.131Z,17.60
2017-09-07T07:38:07.851Z,17.70
2017-09-07T07:40:35.598Z,18.50
2017-09-07T07:43:03.323Z,18.20
2017-09-07T07:45:31.106Z,19.60
2017-09-07T07:47:58.835Z,22.40
2017-09-07T07:50:26.560Z,24.30
2017-09-07T07:52:55.079Z,26.20
2017-09-07T07:55:22.807Z,26.20
2017-09-07T07:57:51.354Z,24.40
2017-09-07T08:00:19.074Z,24.40
2017-09-07T08:02:46.804Z,22.90
2017-09-07T08:05:15.318Z,19.80
2017-09-07T08:07:43.043Z,19.80
2017-09-07T08:10:11.588Z,19.50
2017-09-07T08:12:39.311Z,19.50
2017-09-07T08:15:07.039Z,19.50
2017-09-07T08:17:34.791Z,19.10
2017-09-07T08:20:02.523Z,18.60
2017-09-07T08:22:30.304Z,18.50
2017-09-07T08:24:58.027Z,19.50
2017-09-07T08:27:25.753Z,19.30
2017-09-07T08:29:54.291Z,22.90
2017-09-07T08:32:22.028Z,22.80
2017-09-07T08:34:49.807Z,23.30
2017-09-07T08:37:17.531Z,22.50
2017-09-07T08:39:45.259Z,21.10
2017-09-07T08:42:13.011Z,20.50
2017-09-07T08:44:40.736Z,20.10
2017-09-07T08:47:08.518Z,20.30
2017-09-07T08:49:36.245Z,22.00
2017-09-07T08:52:03.964Z,23.70
2017-09-07T08:54:31.710Z,24.00
2017-09-07T08:56:59.423Z,22.90
2017-09-07T08:59:27.199Z,22.00
2017-09-07T09:01:54.918Z,20.90
2017-09-07T09:04:23.404Z,18.60
2017-09-07T09:06:51.155Z,18.50
2017-09-07T09:09:18.871Z,18.20
2017-09-07T09:11:46.643Z,19.00
2017-09-07T09:14:14.362Z,20.60
2017-09-07T09:16:42.082Z,20.90
2017-09-07T09:19:09.832Z,20.40
2017-09-07T09:21:37.552Z,19.70
2017-09-07T09:24:05.322Z,18.90
2017-09-07T09:26:33.043Z,19.10
2017-09-07T09:29:01.532Z,19.00
2017-09-07T09:31:29.275Z,19.00
2017-09-07T09:33:56.997Z,18.90
2017-09-07T09:36:24.777Z,19.00
2017-09-07T09:38:52.502Z,19.30
2017-09-07T09:41:20.223Z,19.20
2017-09-07T09:43:47.974Z,19.30
2017-09-07T09:46:15.698Z,19.40
2017-09-07T09:48:43.492Z,19.30
2017-09-07T09:51:11.215Z,19.30
2017-09-07T09:53:38.939Z,19.30
2017-09-07T09:56:07.460Z,19.60
2017-09-07T09:58:35.182Z,19.60
2017-09-07T10:01:02.964Z,19.60
2017-09-07T10:03:30.699Z,19.20
2017-09-07T10:05:59.192Z,19.00
2017-09-07T10:08:26.938Z,19.00
2017-09-07T10:10:54.659Z,19.10
2017-09-07T10:13:22.436Z,18.80
2017-09-07T10:15:50.175Z,18.80
2017-09-07T10:18:17.895Z,18.70
2017-09-07T10:20:46.406Z,18.80
2017-09-07T10:23:14.126Z,18.80
2017-09-07T10:25:42.668Z,19.20
2017-09-07T10:28:10.391Z,19.10
2017-09-07T10:30:38.112Z,19.50
2017-09-07T10:33:05.867Z,19.80
2017-09-07T10:35:33.587Z,19.90
2017-09-07T10:38:01.359Z,20.00
2017-09-07T10:40:29.081Z,20.10
2017-09-07T10:42:57.572Z,19.80
2017-09-07T10:45:25.319Z,19.80
2017-09-07T10:47:53.807Z,18.60
2017-09-07T10:50:21.587Z,18.50
2017-09-07T10:52:49.307Z,18.50
2017-09-07T10:55:17.799Z,18.60
2017-09-07T10:57:46.320Z,18.30
2017-09-07T11:00:14.045Z,18.20
2017-09-07T11:02:42.587Z,17.90
2017-09-07T11:05:10.307Z,17.90
2017-09-07T11:07:38.066Z,18.20
2017-09-07T11:10:05.830Z,18.20
2017-09-07T11:12:33.558Z,18.20
2017-09-07T11:15:01.336Z,18.10
2017-09-07T11:17:29.071Z,18.20
2017-09-07T11:19:56.807Z,18.40
2017-09-07T11:22:24.557Z,18.50
2017-09-07T11:24:52.291Z,18.80
2017-09-07T11:27:20.032Z,19.20
2017-09-07T11:29:47.768Z,19.50
2017-09-07T11:32:15.516Z,19.80
2017-09-07T11:34:43.238Z,20.10
2017-09-07T11:37:11.020Z,20.30
2017-09-07T11:39:38.746Z,20.50
2017-09-07T11:42:06.467Z,20.70
2017-09-07T11:44:34.218Z,20.70
2017-09-07T11:47:01.942Z,20.30
2017-09-07T11:49:29.709Z,20.30
2017-09-07T11:51:57.443Z,20.30
2017-09-07T11:54:25.158Z,20.20
2017-09-07T11:56:53.676Z,20.10
2017-09-07T11:59:22.162Z,20.10
2017-09-07T12:01:49.937Z,20.10
2017-09-07T12:04:17.659Z,20.40
2017-09-07T12:06:45.384Z,20.30
2017-09-07T12:09:13.136Z,20.20
2017-09-07T12:11:40.858Z,20.20
2017-09-07T12:14:09.406Z,20.30
2017-09-07T12:16:37.894Z,20.20
2017-09-07T12:19:05.619Z,20.20
2017-09-07T12:21:33.367Z,20.50
2017-09-07T12:24:01.096Z,20.70
2017-09-07T12:26:28.891Z,20.50
2017-09-07T12:28:56.612Z,20.40
2017-09-07T12:31:25.205Z,19.70
2017-09-07T12:33:53.033Z,19.70
2017-09-07T12:36:20.789Z,19.50
2017-09-07T12:38:48.602Z,18.60
2017-09-07T12:41:16.341Z,17.50
2017-09-07T12:43:44.862Z,16.80
2017-09-07T12:46:12.719Z,16.80
2017-09-07T12:48:40.488Z,16.80
2017-09-07T12:51:08.303Z,16.80
2017-09-07T12:53:36.135Z,16.50
2017-09-07T12:56:03.951Z,16.30
2017-09-07T12:58:32.467Z,16.30
2017-09-07T13:01:00.188Z,16.30
2017-09-07T13:03:28.732Z,16.90
2017-09-07T13:05:56.462Z,16.80
2017-09-07T13:08:24.186Z,17.30
2017-09-07T13:10:52.702Z,17.80
2017-09-07T13:13:20.433Z,17.80
2017-09-07T13:15:48.976Z,17.90
2017-09-07T13:18:16.702Z,17.80
2017-09-07T13:20:44.415Z,17.60
2017-09-07T13:23:12.930Z,17.50
2017-09-07T13:25:40.655Z,17.40
2017-09-07T13:28:09.195Z,17.50
2017-09-07T13:30:36.915Z,17.40
2017-09-07T13:33:04.644Z,17.50
2017-09-07T13:35:32.404Z,17.60
2017-09-07T13:38:00.119Z,17.70
2017-09-07T13:40:27.890Z,17.70
2017-09-07T13:42:55.619Z,17.80
2017-09-07T13:45:24.116Z,17.90
2017-09-07T13:47:51.887Z,17.80
2017-09-07T13:50:19.612Z,17.90
2017-09-07T13:52:48.102Z,17.80
2017-09-07T13:55:15.879Z,17.80
2017-09-07T13:57:43.604Z,17.80
2017-09-07T14:00:12.108Z,17.70
2017-09-07T14:02:39.860Z,17.70
2017-09-07T14:05:07.582Z,17.70
2017-09-07T14:07:35.302Z,17.50
2017-09-07T14:10:03.049Z,17.40
2017-09-07T14:12:30.767Z,17.20
2017-09-07T14:14:58.487Z,17.20
2017-09-07T14:17:26.236Z,17.20
2017-09-07T14:19:53.963Z,17.40
2017-09-07T14:22:21.685Z,17.40
2017-09-07T14:24:49.431Z,17.30
2017-09-07T14:27:17.151Z,17.30
2017-09-07T14:29:45.639Z,17.60
2017-09-07T14:32:13.406Z,17.60
2017-09-07T14:34:41.914Z,17.60
2017-09-07T14:37:09.793Z,17.60
2017-09-07T14:39:37.715Z,17.50
2017-09-07T14:42:05.503Z,17.70
2017-09-07T14:44:33.294Z,17.80
2017-09-07T14:47:01.029Z,17.80
2017-09-07T14:49:28.803Z,17.60
2017-09-07T14:51:56.649Z,17.40
2017-09-07T14:54:24.465Z,17.30
2017-09-07T14:56:53.032Z,17.10
2017-09-07T14:59:20.801Z,17.10
2017-09-07T15:01:48.641Z,17.00
2017-09-07T15:04:16.448Z,16.90
2017-09-07T15:06:45.028Z,16.70
2017-09-07T15:09:12.883Z,16.60
2017-09-07T15:11:41.497Z,16.50
2017-09-07T15:14:09.235Z,16.40
2017-09-07T15:16:37.055Z,16.40
2017-09-07T15:19:04.861Z,16.50
2017-09-07T15:21:33.493Z,17.00
2017-09-07T15:24:01.319Z,17.00
2017-09-07T15:26:29.080Z,17.20
2017-09-07T15:28:56.835Z,17.20
2017-09-07T15:31:25.321Z,17.10
2017-09-07T15:33:53.100Z,17.10
2017-09-07T15:36:20.829Z,17.10
2017-09-07T15:38:49.318Z,17.10
2017-09-07T15:41:17.955Z,17.10
2017-09-07T15:43:45.877Z,17.10
2017-09-07T15:46:13.784Z,17.20
2017-09-07T15:48:41.649Z,17.10
2017-09-07T15:51:09.523Z,17.00
2017-09-07T15:53:37.375Z,17.10
2017-09-07T15:56:05.137Z,17.10
2017-09-07T15:58:33.003Z,17.20
2017-09-07T16:01:00.867Z,17.10
2017-09-07T16:03:28.734Z,16.90
2017-09-07T16:05:56.593Z,16.80
2017-09-07T16:08:25.174Z,16.60
2017-09-07T16:10:53.140Z,16.60
2017-09-07T16:13:21.014Z,16.50
2017-09-07T16:15:48.971Z,16.30
2017-09-07T16:18:16.835Z,16.20
2017-09-07T16:20:44.704Z,16.10
2017-09-07T16:23:12.666Z,16.00
2017-09-07T16:25:40.530Z,15.90
2017-09-07T16:28:08.398Z,15.80
2017-09-07T16:30:36.258Z,16.00
2017-09-07T16:33:04.121Z,16.00
2017-09-07T16:35:32.089Z,16.00
2017-09-07T16:38:00.057Z,16.00
2017-09-07T16:40:27.918Z,16.00
2017-09-07T16:42:55.883Z,15.90
2017-09-07T16:45:23.750Z,15.90
2017-09-07T16:47:51.613Z,15.80
2017-09-07T16:50:19.477Z,15.90
2017-09-07T16:52:47.339Z,15.80
2017-09-07T16:55:15.204Z,15.80
2017-09-07T16:57:43.170Z,15.80
2017-09-07T17:00:11.033Z,15.80
2017-09-07T17:02:38.897Z,15.70
2017-09-07T17:05:06.764Z,15.80
2017-09-07T17:07:34.626Z,15.70
2017-09-07T17:10:02.450Z,15.70
2017-09-07T17:12:30.354Z,15.70
2017-09-07T17:14:58.217Z,15.70
2017-09-07T17:17:26.081Z,15.60
2017-09-07T17:19:53.944Z,15.60
2017-09-07T17:22:21.808Z,15.60
2017-09-07T17:24:49.673Z,15.50
2017-09-07T17:27:17.536Z,15.40
2017-09-07T17:29:45.400Z,15.40
2017-09-07T17:32:13.265Z,15.40
2017-09-07T17:34:41.128Z,15.30
2017-09-07T17:37:08.992Z,15.20
2017-09-07T17:39:36.857Z,15.20
2017-09-07T17:42:04.720Z,15.10
2017-09-07T17:44:32.584Z,15.00
2017-09-07T17:47:00.446Z,15.00
2017-09-07T17:49:28.310Z,14.90
2017-09-07T17:51:56.175Z,14.90
2017-09-07T17:54:24.038Z,14.80
2017-09-07T17:56:51.902Z,14.80
2017-09-07T17:59:19.767Z,14.80
2017-09-07T18:01:47.631Z,14.80
2017-09-07T18:04:15.494Z,14.80
2017-09-07T18:06:43.357Z,14.70
2017-09-07T18:09:11.222Z,14.70
2017-09-07T18:11:39.089Z,14.60
2017-09-07T18:14:07.014Z,14.60
2017-09-07T18:16:34.817Z,14.50
2017-09-07T18:19:02.678Z,14.40
2017-09-07T18:21:30.645Z,14.50
2017-09-07T18:23:58.471Z,14.50
2017-09-07T18:26:26.371Z,14.50
2017-09-07T18:28:54.235Z,14.50
2017-09-07T18:31:22.101Z,14.60
2017-09-07T18:33:49.963Z,14.50
2017-09-07T18:36:17.829Z,14.50
2017-09-07T18:38:45.691Z,14.50
2017-09-07T18:41:13.555Z,14.50
2017-09-07T18:43:41.421Z,14.60
2017-09-07T18:46:09.284Z,14.60
2017-09-07T18:48:37.045Z,14.60
2017-09-07T18:51:04.909Z,14.60
2017-09-07T18:53:32.772Z,14.60
2017-09-07T18:56:00.636Z,14.70
2017-09-07T18:58:28.459Z,14.60
2017-09-07T19:00:57.493Z,14.60
2017-09-07T19:03:25.355Z,14.60
2017-09-07T19:05:53.218Z,14.60
2017-09-07T19:08:22.825Z,14.60
2017-09-07T19:10:50.687Z,14.70
2017-09-07T19:13:18.654Z,14.60
2017-09-07T19:15:46.484Z,14.60
2017-09-07T19:18:14.279Z,14.50
2017-09-07T19:20:42.146Z,14.50
2017-09-07T19:23:10.008Z,14.60
2017-09-07T19:25:37.870Z,14.60
2017-09-07T19:28:06.246Z,14.60
2017-09-07T19:30:34.109Z,14.60
2017-09-07T19:33:01.974Z,14.60
2017-09-07T19:35:29.838Z,14.60
2017-09-07T19:37:57.702Z,14.60
2017-09-07T19:40:25.567Z,14.50
2017-09-07T19:42:53.429Z,14.50
2017-09-07T19:45:22.010Z,14.40
2017-09-07T19:47:50.695Z,14.40
2017-09-07T19:50:18.558Z,14.40
2017-09-07T19:52:46.422Z,14.30
2017-09-07T19:55:16.303Z,14.40
2017-09-07T19:57:44.942Z,14.40
2017-09-07T20:00:13.597Z,14.30
2017-09-07T20:02:41.464Z,14.30
2017-09-07T20:05:09.325Z,14.20
2017-09-07T20:07:38.419Z,14.20
2017-09-07T20:10:06.179Z,14.20
2017-09-07T20:12:34.042Z,14.10
2017-09-07T20:15:01.907Z,14.10
2017-09-07T20:17:29.774Z,14.00
2017-09-07T20:19:57.634Z,13.80
2017-09-07T20:22:25.497Z,13.70
2017-09-07T20:24:53.468Z,13.70
2017-09-07T20:27:21.341Z,13.60
2017-09-07T20:29:49.396Z,13.60
2017-09-07T20:32:17.262Z,13.50
2017-09-07T20:34:45.133Z,13.50
2017-09-07T20:37:12.992Z,13.50
2017-09-07T20:39:40.854Z,13.50
2017-09-07T20:42:08.716Z,13.50
2017-09-07T20:44:36.438Z,13.50
2017-09-07T20:47:04.344Z,13.50
2017-09-07T20:49:32.208Z,13.50
2017-09-07T20:52:00.789Z,13.40
2017-09-07T20:54:28.651Z,13.40
2017-09-07T20:56:56.621Z,13.30
2017-09-07T20:59:24.449Z,13.20
2017-09-07T21:01:52.243Z,13.20
2017-09-07T21:04:20.106Z,13.20
2017-09-07T21:06:47.969Z,13.00
2017-09-07T21:09:17.491Z,13.00
2017-09-07T21:11:46.566Z,12.80
2017-09-07T21:14:14.395Z,12.80
2017-09-07T21:16:42.203Z,12.80
2017-09-07T21:19:10.057Z,12.80
2017-09-07T21:21:37.920Z,12.80
2017-09-07T21:24:05.782Z,12.80
2017-09-07T21:26:33.646Z,12.70
2017-09-07T21:29:01.513Z,12.70
2017-09-07T21:31:29.374Z,12.70
2017-09-07T21:33:57.239Z,12.60
2017-09-07T21:36:25.101Z,12.50
2017-09-07T21:38:52.966Z,12.50
2017-09-07T21:41:20.830Z,12.40
2017-09-07T21:43:48.693Z,12.30
2017-09-07T21:46:16.558Z,12.30
2017-09-07T21:48:44.384Z,12.30
2017-09-07T21:51:12.182Z,12.30
2017-09-07T21:53:40.046Z,12.30
2017-09-07T21:56:08.076Z,12.30
2017-09-07T21:58:35.876Z,12.40
2017-09-07T22:01:03.740Z,12.50
2017-09-07T22:03:31.605Z,12.60
2017-09-07T22:05:59.468Z,12.70
2017-09-07T22:08:27.332Z,12.90
2017-09-07T22:10:55.196Z,12.90
2017-09-07T22:13:23.059Z,13.00
2017-09-07T22:15:50.925Z,13.00
2017-09-07T22:18:18.788Z,13.10
2017-09-07T22:20:46.652Z,13.20
2017-09-07T22:23:14.516Z,13.20
2017-09-07T22:25:42.343Z,13.20
2017-09-07T22:28:10.140Z,13.20
2017-09-07T22:30:38.005Z,13.20
2017-09-07T22:33:05.869Z,13.30
2017-09-07T22:35:33.732Z,13.30
2017-09-07T22:38:01.803Z,13.20
2017-09-07T22:40:29.665Z,13.20
2017-09-07T22:42:57.529Z,13.20
2017-09-07T22:45:25.394Z,13.20
2017-09-07T22:47:53.257Z,13.10
2017-09-07T22:50:21.120Z,13.20
2017-09-07T22:52:48.882Z,13.20
2017-09-07T22:55:16.748Z,13.20
2017-09-07T22:57:44.611Z,13.20
2017-09-07T23:00:12.475Z,13.20
2017-09-07T23:02:40.339Z,13.20
2017-09-07T23:05:08.202Z,13.20
2017-09-07T23:07:36.065Z,13.20
2017-09-07T23:10:03.931Z,13.20
2017-09-07T23:12:31.794Z,13.20
2017-09-07T23:14:59.657Z,13.20
2017-09-07T23:17:27.521Z,13.20
2017-09-07T23:19:55.386Z,13.20
2017-09-07T23:22:23.249Z,13.10
2017-09-07T23:24:51.113Z,13.00
2017-09-07T23:27:18.977Z,13.00
2017-09-07T23:29:46.840Z,12.90
2017-09-07T23:32:14.704Z,12.80
2017-09-07T23:34:42.569Z,12.70
2017-09-07T23:37:10.395Z,12.50
2017-09-07T23:39:38.324Z,12.40
2017-09-07T23:42:06.878Z,12.30
2017-09-07T23:44:34.747Z,12.30
2017-09-07T23:47:02.605Z,12.20
2017-09-07T23:49:30.467Z,12.00
2017-09-07T23:51:58.333Z,12.00
2017-09-07T23:54:26.196Z,11.90
2017-09-07T23:56:54.061Z,11.80
2017-09-07T23:59:21.977Z,11.70
